sensor_id;sensor_type;location;lat;lon;timestamp;pressure;altitude;pressure_sealevel;temperature;humidity
48790;BME280;41718;51.980;5.734;2023-03-20T00:05:25;101828.63;;;7.42;100.00
48790;BME280;41718;51.980;5.734;2023-03-20T00:10:36;101826.88;;;7.41;100.00
48790;BME280;41718;51.980;5.734;2023-03-20T00:15:43;101818.28;;;7.40;100.00
48790;BME280;41718;51.980;5.734;2023-03-20T00:20:52;101822.41;;;7.37;100.00
48790;BME280;41718;51.980;5.734;2023-03-20T00:25:55;101822.91;;;7.28;100.00
48790;BME280;41718;51.980;5.734;2023-03-20T00:30:57;101821.19;;;7.29;100.00
48790;BME280;41718;51.980;5.734;2023-03-20T00:36:00;101834.22;;;7.32;100.00
48790;BME280;41718;51.980;5.734;2023-03-20T00:41:19;101823.78;;;7.29;100.00
48790;BME280;41718;51.980;5.734;2023-03-20T00:46:22;101815.25;;;7.30;100.00
48790;BME280;41718;51.980;5.734;2023-03-20T00:51:24;101817.88;;;7.31;100.00
48790;BME280;41718;51.980;5.734;2023-03-20T00:56:32;101798.19;;;7.32;100.00
48790;BME280;41718;51.980;5.734;2023-03-20T01:01:35;101792.28;;;7.34;100.00
48790;BME280;41718;51.980;5.734;2023-03-20T01:06:36;101815.38;;;7.33;100.00
48790;BME280;41718;51.980;5.734;2023-03-20T01:11:38;101839.38;;;7.32;100.00
48790;BME280;41718;51.980;5.734;2023-03-20T01:16:41;101857.78;;;7.22;100.00
48790;BME280;41718;51.980;5.734;2023-03-20T01:21:43;101867.19;;;7.21;100.00
48790;BME280;41718;51.980;5.734;2023-03-20T01:26:45;101856.22;;;7.25;100.00
48790;BME280;41718;51.980;5.734;2023-03-20T01:31:48;101854.25;;;7.20;100.00
48790;BME280;41718;51.980;5.734;2023-03-20T01:36:52;101850.06;;;7.22;100.00
48790;BME280;41718;51.980;5.734;2023-03-20T01:41:54;101856.81;;;7.20;100.00
48790;BME280;41718;51.980;5.734;2023-03-20T01:46:57;101845.31;;;7.11;100.00
48790;BME280;41718;51.980;5.734;2023-03-20T01:51:59;101851.34;;;7.12;100.00
48790;BME280;41718;51.980;5.734;2023-03-20T01:57:19;101860.75;;;7.11;100.00
48790;BME280;41718;51.980;5.734;2023-03-20T02:02:28;101845.38;;;7.13;100.00
48790;BME280;41718;51.980;5.734;2023-03-20T02:07:32;101836.03;;;7.15;100.00
48790;BME280;41718;51.980;5.734;2023-03-20T02:12:35;101830.00;;;7.14;100.00
48790;BME280;41718;51.980;5.734;2023-03-20T02:17:36;101822.97;;;7.10;100.00
48790;BME280;41718;51.980;5.734;2023-03-20T02:23:05;101806.56;;;7.08;100.00
48790;BME280;41718;51.980;5.734;2023-03-20T02:34:10;101811.66;;;7.07;100.00
48790;BME280;41718;51.980;5.734;2023-03-20T02:39:29;101807.16;;;7.03;100.00
48790;BME280;41718;51.980;5.734;2023-03-20T02:49:52;101797.69;;;7.02;100.00
48790;BME280;41718;51.980;5.734;2023-03-20T02:55:30;101806.38;;;7.04;100.00
48790;BME280;41718;51.980;5.734;2023-03-20T03:00:44;101813.94;;;7.01;100.00
48790;BME280;41718;51.980;5.734;2023-03-20T03:05:58;101800.88;;;6.96;100.00
48790;BME280;41718;51.980;5.734;2023-03-20T03:11:04;101793.03;;;6.93;100.00
48790;BME280;41718;51.980;5.734;2023-03-20T03:16:37;101788.63;;;6.90;100.00
48790;BME280;41718;51.980;5.734;2023-03-20T03:21:40;101770.41;;;6.86;100.00
48790;BME280;41718;51.980;5.734;2023-03-20T03:26:42;101745.28;;;6.80;100.00
48790;BME280;41718;51.980;5.734;2023-03-20T03:31:44;101729.97;;;6.82;100.00
48790;BME280;41718;51.980;5.734;2023-03-20T03:42:04;101734.94;;;6.59;100.00
48790;BME280;41718;51.980;5.734;2023-03-20T03:52:20;101752.50;;;6.50;100.00
48790;BME280;41718;51.980;5.734;2023-03-20T03:57:28;101748.63;;;6.41;100.00
48790;BME280;41718;51.980;5.734;2023-03-20T04:02:32;101743.09;;;6.31;100.00
48790;BME280;41718;51.980;5.734;2023-03-20T04:07:34;101739.34;;;6.25;100.00
48790;BME280;41718;51.980;5.734;2023-03-20T04:12:38;101735.00;;;6.24;100.00
48790;BME280;41718;51.980;5.734;2023-03-20T04:17:41;101733.19;;;6.21;100.00
48790;BME280;41718;51.980;5.734;2023-03-20T04:22:43;101722.47;;;6.12;100.00
48790;BME280;41718;51.980;5.734;2023-03-20T04:27:45;101721.00;;;6.17;100.00
48790;BME280;41718;51.980;5.734;2023-03-20T04:32:46;101715.72;;;6.14;100.00
48790;BME280;41718;51.980;5.734;2023-03-20T04:37:48;101723.44;;;6.14;100.00
48790;BME280;41718;51.980;5.734;2023-03-20T04:42:50;101716.31;;;6.08;100.00
48790;BME280;41718;51.980;5.734;2023-03-20T04:47:51;101716.31;;;6.08;100.00
48790;BME280;41718;51.980;5.734;2023-03-20T04:52:53;101724.91;;;6.09;100.00
48790;BME280;41718;51.980;5.734;2023-03-20T04:57:54;101718.59;;;6.02;100.00
48790;BME280;41718;51.980;5.734;2023-03-20T05:02:56;101728.88;;;6.02;100.00
48790;BME280;41718;51.980;5.734;2023-03-20T05:07:57;101731.22;;;5.98;100.00
48790;BME280;41718;51.980;5.734;2023-03-20T05:12:59;101720.00;;;5.96;100.00
48790;BME280;41718;51.980;5.734;2023-03-20T05:18:00;101717.44;;;5.96;100.00
48790;BME280;41718;51.980;5.734;2023-03-20T05:23:02;101712.16;;;5.93;100.00
48790;BME280;41718;51.980;5.734;2023-03-20T05:28:06;101707.81;;;5.92;100.00
48790;BME280;41718;51.980;5.734;2023-03-20T05:33:08;101712.06;;;5.91;100.00
48790;BME280;41718;51.980;5.734;2023-03-20T05:38:09;101705.31;;;5.93;100.00
48790;BME280;41718;51.980;5.734;2023-03-20T05:43:11;101719.66;;;5.90;100.00
48790;BME280;41718;51.980;5.734;2023-03-20T05:48:12;101722.41;;;5.93;100.00
48790;BME280;41718;51.980;5.734;2023-03-20T05:53:14;101712.16;;;5.93;100.00
48790;BME280;41718;51.980;5.734;2023-03-20T05:58:16;101723.34;;;5.95;100.00
48790;BME280;41718;51.980;5.734;2023-03-20T06:03:17;101729.47;;;5.97;100.00
48790;BME280;41718;51.980;5.734;2023-03-20T06:08:19;101738.94;;;5.98;100.00
48790;BME280;41718;51.980;5.734;2023-03-20T06:13:20;101744.13;;;5.99;100.00
48790;BME280;41718;51.980;5.734;2023-03-20T06:18:22;101746.91;;;6.04;100.00
48790;BME280;41718;51.980;5.734;2023-03-20T06:23:23;101756.59;;;6.09;100.00
48790;BME280;41718;51.980;5.734;2023-03-20T06:28:25;101748.25;;;6.14;100.00
48790;BME280;41718;51.980;5.734;2023-03-20T06:33:26;101741.47;;;6.16;100.00
48790;BME280;41718;51.980;5.734;2023-03-20T06:38:29;101733.94;;;6.19;100.00
48790;BME280;41718;51.980;5.734;2023-03-20T06:43:30;101740.59;;;6.15;100.00
48790;BME280;41718;51.980;5.734;2023-03-20T06:48:32;101757.78;;;6.16;100.00
48790;BME280;41718;51.980;5.734;2023-03-20T06:53:33;101763.66;;;6.14;100.00
48790;BME280;41718;51.980;5.734;2023-03-20T06:58:35;101765.69;;;6.21;100.00
48790;BME280;41718;51.980;5.734;2023-03-20T07:03:36;101773.47;;;6.22;100.00
48790;BME280;41718;51.980;5.734;2023-03-20T07:08:38;101765.94;;;6.25;100.00
48790;BME280;41718;51.980;5.734;2023-03-20T07:13:40;101766.59;;;6.21;100.00
48790;BME280;41718;51.980;5.734;2023-03-20T07:18:41;101771.88;;;6.24;100.00
48790;BME280;41718;51.980;5.734;2023-03-20T07:23:43;101769.31;;;6.24;100.00
48790;BME280;41718;51.980;5.734;2023-03-20T07:28:45;101768.22;;;6.19;100.00
48790;BME280;41718;51.980;5.734;2023-03-20T07:33:46;101768.50;;;6.25;100.00
48790;BME280;41718;51.980;5.734;2023-03-20T07:38:48;101760.03;;;6.28;100.00
48790;BME280;41718;51.980;5.734;2023-03-20T07:43:49;101776.56;;;6.33;100.00
48790;BME280;41718;51.980;5.734;2023-03-20T07:48:51;101773.97;;;6.33;100.00
48790;BME280;41718;51.980;5.734;2023-03-20T07:53:52;101775.75;;;6.34;100.00
48790;BME280;41718;51.980;5.734;2023-03-20T07:58:54;101775.16;;;6.40;100.00
48790;BME280;41718;51.980;5.734;2023-03-20T08:03:55;101775.25;;;6.41;100.00
48790;BME280;41718;51.980;5.734;2023-03-20T08:08:57;101773.81;;;6.48;100.00
48790;BME280;41718;51.980;5.734;2023-03-20T08:13:58;101774.22;;;6.57;100.00
48790;BME280;41718;51.980;5.734;2023-03-20T08:19:00;101776.09;;;6.59;100.00
48790;BME280;41718;51.980;5.734;2023-03-20T08:24:05;101779.00;;;6.67;100.00
48790;BME280;41718;51.980;5.734;2023-03-20T08:29:06;101764.81;;;6.75;100.00
48790;BME280;41718;51.980;5.734;2023-03-20T08:34:08;101766.91;;;6.84;100.00
48790;BME280;41718;51.980;5.734;2023-03-20T08:39:09;101776.63;;;6.91;100.00
48790;BME280;41718;51.980;5.734;2023-03-20T08:44:13;101772.63;;;6.98;100.00
48790;BME280;41718;51.980;5.734;2023-03-20T08:49:17;101760.47;;;7.13;100.00
48790;BME280;41718;51.980;5.734;2023-03-20T08:54:19;101756.00;;;7.28;100.00
48790;BME280;41718;51.980;5.734;2023-03-20T08:59:20;101751.47;;;7.23;100.00
48790;BME280;41718;51.980;5.734;2023-03-20T09:04:22;101754.50;;;7.33;100.00
48790;BME280;41718;51.980;5.734;2023-03-20T09:09:23;101753.09;;;7.41;100.00
48790;BME280;41718;51.980;5.734;2023-03-20T09:14:29;101745.97;;;7.55;100.00
48790;BME280;41718;51.980;5.734;2023-03-20T09:19:31;101751.63;;;7.67;100.00
48790;BME280;41718;51.980;5.734;2023-03-20T09:24:32;101750.31;;;7.56;100.00
48790;BME280;41718;51.980;5.734;2023-03-20T09:29:35;101763.38;;;7.61;100.00
48790;BME280;41718;51.980;5.734;2023-03-20T09:34:37;101776.38;;;7.64;100.00
48790;BME280;41718;51.980;5.734;2023-03-20T09:39:41;101772.56;;;7.35;100.00
48790;BME280;41718;51.980;5.734;2023-03-20T09:44:56;101783.53;;;7.31;100.00
48790;BME280;41718;51.980;5.734;2023-03-20T09:55:15;101792.28;;;7.34;100.00
48790;BME280;41718;51.980;5.734;2023-03-20T10:00:25;101794.78;;;7.33;100.00
48790;BME280;41718;51.980;5.734;2023-03-20T10:05:29;101792.81;;;7.47;100.00
48790;BME280;41718;51.980;5.734;2023-03-20T10:10:51;101791.56;;;7.58;100.00
48790;BME280;41718;51.980;5.734;2023-03-20T10:16:13;101788.81;;;7.74;100.00
48790;BME280;41718;51.980;5.734;2023-03-20T10:21:26;101780.41;;;7.78;100.00
48790;BME280;41718;51.980;5.734;2023-03-20T10:26:34;101783.09;;;7.81;100.00
48790;BME280;41718;51.980;5.734;2023-03-20T10:31:44;101773.50;;;7.77;100.00
48790;BME280;41718;51.980;5.734;2023-03-20T10:42:20;101775.06;;;7.94;100.00
48790;BME280;41718;51.980;5.734;2023-03-20T10:47:27;101773.03;;;7.87;100.00
48790;BME280;41718;51.980;5.734;2023-03-20T10:52:35;101768.72;;;7.86;100.00
48790;BME280;41718;51.980;5.734;2023-03-20T10:57:39;101767.63;;;7.81;100.00
48790;BME280;41718;51.980;5.734;2023-03-20T11:02:43;101764.75;;;7.94;100.00
48790;BME280;41718;51.980;5.734;2023-03-20T11:07:46;101765.25;;;7.86;100.00
48790;BME280;41718;51.980;5.734;2023-03-20T11:12:50;101756.84;;;7.90;100.00
48790;BME280;41718;51.980;5.734;2023-03-20T11:18:04;101769.16;;;7.97;100.00
48790;BME280;41718;51.980;5.734;2023-03-20T11:23:06;101759.09;;;7.82;100.00
48790;BME280;41718;51.980;5.734;2023-03-20T11:33:38;101742.69;;;8.01;100.00
48790;BME280;41718;51.980;5.734;2023-03-20T11:38:45;101734.25;;;8.05;100.00
48790;BME280;41718;51.980;5.734;2023-03-20T11:43:46;101738.66;;;8.08;100.00
48790;BME280;41718;51.980;5.734;2023-03-20T11:49:05;101735.09;;;8.27;100.00
48790;BME280;41718;51.980;5.734;2023-03-20T11:54:15;101729.56;;;7.95;100.00
48790;BME280;41718;51.980;5.734;2023-03-20T11:59:17;101725.84;;;8.54;100.00
48790;BME280;41718;51.980;5.734;2023-03-20T12:04:26;101733.50;;;8.08;100.00
48790;BME280;41718;51.980;5.734;2023-03-20T12:09:41;101721.31;;;8.04;100.00
48790;BME280;41718;51.980;5.734;2023-03-20T12:14:53;101723.94;;;8.05;100.00
48790;BME280;41718;51.980;5.734;2023-03-20T12:20:02;101716.44;;;7.89;100.00
48790;BME280;41718;51.980;5.734;2023-03-20T12:25:15;101716.28;;;8.07;100.00
48790;BME280;41718;51.980;5.734;2023-03-20T12:30:28;101705.75;;;7.80;100.00
48790;BME280;41718;51.980;5.734;2023-03-20T12:35:35;101699.00;;;8.04;100.00
48790;BME280;41718;51.980;5.734;2023-03-20T12:40:41;101703.28;;;8.04;100.00
48790;BME280;41718;51.980;5.734;2023-03-20T12:45:55;101692.91;;;8.24;100.00
48790;BME280;41718;51.980;5.734;2023-03-20T12:51:48;101688.78;;;8.06;100.00
48790;BME280;41718;51.980;5.734;2023-03-20T13:02:27;101683.31;;;8.20;100.00
48790;BME280;41718;51.980;5.734;2023-03-20T13:07:40;101686.28;;;8.31;100.00
48790;BME280;41718;51.980;5.734;2023-03-20T13:23:33;101666.22;;;8.00;100.00
48790;BME280;41718;51.980;5.734;2023-03-20T13:40:31;101665.81;;;8.12;100.00
48790;BME280;41718;51.980;5.734;2023-03-20T13:45:40;101658.34;;;7.97;100.00
48790;BME280;41718;51.980;5.734;2023-03-20T13:50:59;101641.09;;;7.94;100.00
48790;BME280;41718;51.980;5.734;2023-03-20T14:01:43;101641.34;;;8.01;100.00
48790;BME280;41718;51.980;5.734;2023-03-20T14:06:50;101637.22;;;8.06;100.00
48790;BME280;41718;51.980;5.734;2023-03-20T14:11:54;101629.16;;;7.96;100.00
48790;BME280;41718;51.980;5.734;2023-03-20T14:17:18;101622.66;;;8.06;100.00
48790;BME280;41718;51.980;5.734;2023-03-20T14:22:25;101624.34;;;8.06;100.00
48790;BME280;41718;51.980;5.734;2023-03-20T14:27:29;101623.41;;;7.81;100.00
48790;BME280;41718;51.980;5.734;2023-03-20T14:32:52;101620.94;;;7.84;100.00
48790;BME280;41718;51.980;5.734;2023-03-20T14:43:17;101623.38;;;8.04;100.00
48790;BME280;41718;51.980;5.734;2023-03-20T14:53:27;101628.22;;;7.94;100.00
48790;BME280;41718;51.980;5.734;2023-03-20T15:03:38;101636.81;;;7.95;100.00
48790;BME280;41718;51.980;5.734;2023-03-20T15:08:54;101638.53;;;7.94;100.00
48790;BME280;41718;51.980;5.734;2023-03-20T15:13:58;101642.91;;;7.97;100.00
48790;BME280;41718;51.980;5.734;2023-03-20T15:19:00;101638.09;;;7.84;100.00
48790;BME280;41718;51.980;5.734;2023-03-20T15:24:04;101633.84;;;7.84;100.00
48790;BME280;41718;51.980;5.734;2023-03-20T15:29:11;101636.41;;;7.84;100.00
48790;BME280;41718;51.980;5.734;2023-03-20T15:34:19;101638.31;;;7.67;100.00
48790;BME280;41718;51.980;5.734;2023-03-20T15:39:25;101637.38;;;7.65;100.00
48790;BME280;41718;51.980;5.734;2023-03-20T15:44:35;101635.38;;;7.58;100.00
48790;BME280;41718;51.980;5.734;2023-03-20T15:49:39;101638.31;;;7.67;100.00
48790;BME280;41718;51.980;5.734;2023-03-20T15:54:44;101637.75;;;7.54;100.00
48790;BME280;41718;51.980;5.734;2023-03-20T15:59:47;101636.00;;;7.53;100.00
48790;BME280;41718;51.980;5.734;2023-03-20T16:04:51;101627.59;;;7.57;100.00
48790;BME280;41718;51.980;5.734;2023-03-20T16:09:54;101626.81;;;7.59;100.00
48790;BME280;41718;51.980;5.734;2023-03-20T16:14:56;101628.34;;;7.54;100.00
48790;BME280;41718;51.980;5.734;2023-03-20T16:19:58;101613.91;;;7.58;100.00
48790;BME280;41718;51.980;5.734;2023-03-20T16:25:01;101622.00;;;7.67;100.00
48790;BME280;41718;51.980;5.734;2023-03-20T16:30:05;101612.16;;;7.57;100.00
48790;BME280;41718;51.980;5.734;2023-03-20T16:35:23;101621.28;;;7.71;100.00
48790;BME280;41718;51.980;5.734;2023-03-20T16:40:33;101610.91;;;7.69;100.00
48790;BME280;41718;51.980;5.734;2023-03-20T16:45:36;101612.03;;;7.76;100.00
48790;BME280;41718;51.980;5.734;2023-03-20T16:50:40;101613.81;;;7.77;100.00
48790;BME280;41718;51.980;5.734;2023-03-20T16:55:46;101608.94;;;7.85;100.00
48790;BME280;41718;51.980;5.734;2023-03-20T17:00:53;101617.00;;;7.94;100.00
48790;BME280;41718;51.980;5.734;2023-03-20T17:06:04;101607.06;;;8.03;100.00
48790;BME280;41718;51.980;5.734;2023-03-20T17:11:15;101621.63;;;8.03;100.00
48790;BME280;41718;51.980;5.734;2023-03-20T17:16:23;101616.50;;;8.03;100.00
48790;BME280;41718;51.980;5.734;2023-03-20T17:21:25;101616.53;;;8.04;100.00
48790;BME280;41718;51.980;5.734;2023-03-20T17:26:27;101613.97;;;8.04;100.00
48790;BME280;41718;51.980;5.734;2023-03-20T17:31:29;101616.50;;;8.03;100.00
48790;BME280;41718;51.980;5.734;2023-03-20T17:36:32;101620.88;;;8.05;100.00
48790;BME280;41718;51.980;5.734;2023-03-20T17:41:34;101620.13;;;8.08;100.00
48790;BME280;41718;51.980;5.734;2023-03-20T17:46:36;101619.25;;;8.07;100.00
48790;BME280;41718;51.980;5.734;2023-03-20T17:51:57;101627.72;;;8.05;100.00
48790;BME280;41718;51.980;5.734;2023-03-20T17:56:58;101619.94;;;8.03;100.00
48790;BME280;41718;51.980;5.734;2023-03-20T18:02:00;101622.66;;;8.06;100.00
48790;BME280;41718;51.980;5.734;2023-03-20T18:07:02;101623.53;;;8.07;100.00
48790;BME280;41718;51.980;5.734;2023-03-20T18:12:03;101614.09;;;8.07;100.00
48790;BME280;41718;51.980;5.734;2023-03-20T18:17:05;101625.28;;;8.08;100.00
48790;BME280;41718;51.980;5.734;2023-03-20T18:22:07;101628.84;;;8.11;100.00
48790;BME280;41718;51.980;5.734;2023-03-20T18:27:10;101623.69;;;8.11;100.00
48790;BME280;41718;51.980;5.734;2023-03-20T18:32:11;101629.00;;;8.16;100.00
48790;BME280;41718;51.980;5.734;2023-03-20T18:37:13;101627.47;;;8.21;100.00
48790;BME280;41718;51.980;5.734;2023-03-20T18:42:14;101627.44;;;8.19;100.00
48790;BME280;41718;51.980;5.734;2023-03-20T18:47:17;101627.56;;;8.22;100.00
48790;BME280;41718;51.980;5.734;2023-03-20T18:52:19;101624.97;;;8.22;100.00
48790;BME280;41718;51.980;5.734;2023-03-20T18:57:20;101619.69;;;8.19;100.00
48790;BME280;41718;51.980;5.734;2023-03-20T19:02:21;101622.44;;;8.24;100.00
48790;BME280;41718;51.980;5.734;2023-03-20T19:07:23;101612.97;;;8.23;100.00
48790;BME280;41718;51.980;5.734;2023-03-20T19:12:24;101614.88;;;8.29;100.00
48790;BME280;41718;51.980;5.734;2023-03-20T19:17:28;101609.81;;;8.32;100.00
48790;BME280;41718;51.980;5.734;2023-03-20T19:22:30;101612.66;;;8.38;100.00
48790;BME280;41718;51.980;5.734;2023-03-20T19:27:31;101605.09;;;8.42;100.00
48790;BME280;41718;51.980;5.734;2023-03-20T19:32:34;101604.22;;;8.42;100.00
48790;BME280;41718;51.980;5.734;2023-03-20T19:37:37;101607.72;;;8.44;100.00
48790;BME280;41718;51.980;5.734;2023-03-20T19:42:39;101606.97;;;8.46;100.00
48790;BME280;41718;51.980;5.734;2023-03-20T19:48:01;101604.25;;;8.43;100.00
48790;BME280;41718;51.980;5.734;2023-03-20T19:53:10;101606.78;;;8.42;100.00
48790;BME280;41718;51.980;5.734;2023-03-20T19:58:12;101601.63;;;8.42;100.00
48790;BME280;41718;51.980;5.734;2023-03-20T20:03:20;101601.59;;;8.40;100.00
48790;BME280;41718;51.980;5.734;2023-03-20T20:08:22;101598.06;;;8.38;100.00
48790;BME280;41718;51.980;5.734;2023-03-20T20:13:49;101592.03;;;8.38;100.00
48790;BME280;41718;51.980;5.734;2023-03-20T20:19:15;101587.69;;;8.37;100.00
48790;BME280;41718;51.980;5.734;2023-03-20T20:24:19;101587.53;;;8.34;100.00
48790;BME280;41718;51.980;5.734;2023-03-20T20:29:26;101586.66;;;8.33;100.00
48790;BME280;41718;51.980;5.734;2023-03-20T20:34:34;101591.81;;;8.33;100.00
48790;BME280;41718;51.980;5.734;2023-03-20T20:39:57;101584.03;;;8.32;100.00
48790;BME280;41718;51.980;5.734;2023-03-20T20:45:09;101584.81;;;8.29;100.00
48790;BME280;41718;51.980;5.734;2023-03-20T20:50:28;101592.47;;;8.28;100.00
48790;BME280;41718;51.980;5.734;2023-03-20T20:55:33;101590.78;;;8.28;100.00
48790;BME280;41718;51.980;5.734;2023-03-20T21:00:40;101570.13;;;8.27;100.00
48790;BME280;41718;51.980;5.734;2023-03-20T21:05:54;101570.13;;;8.27;100.00
48790;BME280;41718;51.980;5.734;2023-03-20T21:10:56;101565.75;;;8.24;100.00
48790;BME280;41718;51.980;5.734;2023-03-20T21:16:01;101568.41;;;8.27;100.00
48790;BME280;41718;51.980;5.734;2023-03-20T21:21:09;101560.59;;;8.24;100.00
48790;BME280;41718;51.980;5.734;2023-03-20T21:26:12;101560.59;;;8.24;100.00
48790;BME280;41718;51.980;5.734;2023-03-20T21:31:35;101562.34;;;8.25;100.00
48790;BME280;41718;51.980;5.734;2023-03-20T21:36:43;101555.38;;;8.22;100.00
48790;BME280;41718;51.980;5.734;2023-03-20T21:41:49;101553.69;;;8.23;100.00
48790;BME280;41718;51.980;5.734;2023-03-20T21:46:51;101553.69;;;8.23;100.00
48790;BME280;41718;51.980;5.734;2023-03-20T21:52:14;101545.94;;;8.23;100.00
48790;BME280;41718;51.980;5.734;2023-03-20T21:57:39;101551.97;;;8.23;100.00
48790;BME280;41718;51.980;5.734;2023-03-20T22:03:04;101549.44;;;8.25;100.00
48790;BME280;41718;51.980;5.734;2023-03-20T22:08:12;101548.66;;;8.28;100.00
48790;BME280;41718;51.980;5.734;2023-03-20T22:13:36;101551.38;;;8.31;100.00
48790;BME280;41718;51.980;5.734;2023-03-20T22:18:58;101552.25;;;8.31;100.00
48790;BME280;41718;51.980;5.734;2023-03-20T22:24:24;101547.22;;;8.34;100.00
48790;BME280;41718;51.980;5.734;2023-03-20T22:29:49;101544.56;;;8.33;100.00
48790;BME280;41718;51.980;5.734;2023-03-20T22:35:14;101545.59;;;8.36;100.00
48790;BME280;41718;51.980;5.734;2023-03-20T22:40:37;101536.91;;;8.34;100.00
48790;BME280;41718;51.980;5.734;2023-03-20T22:46:00;101531.03;;;8.38;100.00
48790;BME280;41718;51.980;5.734;2023-03-20T22:51:26;101536.25;;;8.40;100.00
48790;BME280;41718;51.980;5.734;2023-03-20T22:56:35;101525.13;;;8.41;100.00
48790;BME280;41718;51.980;5.734;2023-03-20T23:01:37;101521.59;;;8.39;100.00
48790;BME280;41718;51.980;5.734;2023-03-20T23:06:40;101525.22;;;8.44;100.00
48790;BME280;41718;51.980;5.734;2023-03-20T23:11:47;101523.50;;;8.44;100.00
48790;BME280;41718;51.980;5.734;2023-03-20T23:16:49;101529.53;;;8.45;100.00
48790;BME280;41718;51.980;5.734;2023-03-20T23:21:51;101526.03;;;8.43;100.00
48790;BME280;41718;51.980;5.734;2023-03-20T23:26:56;101532.06;;;8.43;100.00
48790;BME280;41718;51.980;5.734;2023-03-20T23:32:11;101520.06;;;8.44;100.00
48790;BME280;41718;51.980;5.734;2023-03-20T23:37:14;101525.03;;;8.39;100.00
48790;BME280;41718;51.980;5.734;2023-03-20T23:42:15;101512.94;;;8.37;100.00
48790;BME280;41718;51.980;5.734;2023-03-20T23:47:30;101511.13;;;8.34;100.00
48790;BME280;41718;51.980;5.734;2023-03-20T23:52:45;101509.28;;;8.32;100.00
48790;BME280;41718;51.980;5.734;2023-03-20T23:58:01;101505.84;;;8.31;100.00
